Rangerville, Texas
Current Conditions -  °F | °C
As of 4:52 AM on Wednesday 26 Nov 2014 (Local Time) from KHRL Reporting Station
Clear Clear  
Wind Chill: 38°   Ceiling: Unl
Heat Index: 41°   Visibility: 10mi
Dew Point: 39°   Wind: 5mph
Humidity: 93%   Direction: 190°S
Pressure: 30.26"   Gusts: NA
Location:  26.1784°N, 97.6678°W
Report Text: KHRL 261052Z AUTO 19004KT 10SM CLR 05/04 A3026 RMK AO2 SLP247 T00500039
Loading
Personal Weather Stations






























Interactive Weather Map New forecast layout! Learn more

10-Day Weather Forecast

Advertisements
Track Severe Weather on mobile